sensor_id;sensor_type;location;lat;lon;timestamp;temperature;humidity
19968;DHT22;10145;49.152;9.282;2024-01-07T16:53:21;1.10;99.90
19968;DHT22;10145;49.152;9.282;2024-01-07T16:55:47;1.00;99.90
19968;DHT22;10145;49.152;9.282;2024-01-07T16:58:13;1.00;99.90
19968;DHT22;10145;49.152;9.282;2024-01-07T17:00:39;1.00;99.90
19968;DHT22;10145;49.152;9.282;2024-01-07T17:03:05;1.00;99.90
19968;DHT22;10145;49.152;9.282;2024-01-07T17:05:31;0.90;99.90
19968;DHT22;10145;49.152;9.282;2024-01-07T17:07:57;0.90;99.90
19968;DHT22;10145;49.152;9.282;2024-01-07T17:10:23;0.80;99.90
19968;DHT22;10145;49.152;9.282;2024-01-07T17:12:48;0.80;99.90
19968;DHT22;10145;49.152;9.282;2024-01-07T17:15:14;0.80;99.90
19968;DHT22;10145;49.152;9.282;2024-01-07T17:17:40;0.80;99.90
19968;DHT22;10145;49.152;9.282;2024-01-07T17:20:07;0.80;99.90
19968;DHT22;10145;49.152;9.282;2024-01-07T17:22:34;0.80;99.90
19968;DHT22;10145;49.152;9.282;2024-01-07T17:25:00;0.80;99.90
19968;DHT22;10145;49.152;9.282;2024-01-07T17:27:25;0.80;99.90
19968;DHT22;10145;49.152;9.282;2024-01-07T17:29:51;0.70;99.90
19968;DHT22;10145;49.152;9.282;2024-01-07T17:32:16;0.70;99.90
19968;DHT22;10145;49.152;9.282;2024-01-07T17:34:50;0.60;99.90
19968;DHT22;10145;49.152;9.282;2024-01-07T17:37:16;0.60;99.90
19968;DHT22;10145;49.152;9.282;2024-01-07T17:39:41;0.50;99.90
19968;DHT22;10145;49.152;9.282;2024-01-07T17:42:08;0.50;99.90
19968;DHT22;10145;49.152;9.282;2024-01-07T17:44:34;0.50;99.90
19968;DHT22;10145;49.152;9.282;2024-01-07T17:47:00;0.40;99.90
19968;DHT22;10145;49.152;9.282;2024-01-07T17:49:25;0.30;99.90
19968;DHT22;10145;49.152;9.282;2024-01-07T17:51:51;0.30;99.90
19968;DHT22;10145;49.152;9.282;2024-01-07T17:54:17;0.20;99.90
19968;DHT22;10145;49.152;9.282;2024-01-07T17:56:43;0.20;99.90
19968;DHT22;10145;49.152;9.282;2024-01-07T17:59:09;0.10;99.90
19968;DHT22;10145;49.152;9.282;2024-01-07T18:01:36;0.10;99.90
19968;DHT22;10145;49.152;9.282;2024-01-07T18:04:01;0.00;99.90
19968;DHT22;10145;49.152;9.282;2024-01-07T18:06:29;0.00;99.90
19968;DHT22;10145;49.152;9.282;2024-01-07T18:08:55;0.00;99.90
19968;DHT22;10145;49.152;9.282;2024-01-07T18:11:20;-0.10;99.90
19968;DHT22;10145;49.152;9.282;2024-01-07T18:13:46;-0.10;99.90
19968;DHT22;10145;49.152;9.282;2024-01-07T18:16:11;-0.10;99.90
19968;DHT22;10145;49.152;9.282;2024-01-07T18:18:39;-0.10;99.90
19968;DHT22;10145;49.152;9.282;2024-01-07T18:21:04;-0.20;99.90
19968;DHT22;10145;49.152;9.282;2024-01-07T18:23:30;-0.20;99.90
19968;DHT22;10145;49.152;9.282;2024-01-07T18:25:55;-0.20;99.90
19968;DHT22;10145;49.152;9.282;2024-01-07T18:28:21;-0.20;99.90
19968;DHT22;10145;49.152;9.282;2024-01-07T18:30:47;-0.20;99.90
19968;DHT22;10145;49.152;9.282;2024-01-07T18:33:13;-0.20;99.90
19968;DHT22;10145;49.152;9.282;2024-01-07T18:35:38;-0.20;99.90
19968;DHT22;10145;49.152;9.282;2024-01-07T18:38:04;-0.20;99.90
19968;DHT22;10145;49.152;9.282;2024-01-07T18:40:30;-0.30;99.90
19968;DHT22;10145;49.152;9.282;2024-01-07T18:42:55;-0.30;99.90
19968;DHT22;10145;49.152;9.282;2024-01-07T18:45:22;-0.30;99.90
19968;DHT22;10145;49.152;9.282;2024-01-07T18:47:49;-0.30;99.90
19968;DHT22;10145;49.152;9.282;2024-01-07T18:50:14;-0.30;99.90
19968;DHT22;10145;49.152;9.282;2024-01-07T18:52:44;-0.30;99.90
19968;DHT22;10145;49.152;9.282;2024-01-07T18:55:10;-0.30;99.90
19968;DHT22;10145;49.152;9.282;2024-01-07T18:57:37;-0.30;99.90
19968;DHT22;10145;49.152;9.282;2024-01-07T19:00:04;-0.30;99.90
19968;DHT22;10145;49.152;9.282;2024-01-07T19:02:30;-0.30;99.90
19968;DHT22;10145;49.152;9.282;2024-01-07T19:04:55;-0.30;99.90
19968;DHT22;10145;49.152;9.282;2024-01-07T19:07:21;-0.30;99.90
19968;DHT22;10145;49.152;9.282;2024-01-07T19:09:47;-0.30;99.90
19968;DHT22;10145;49.152;9.282;2024-01-07T19:12:12;-0.30;99.90
19968;DHT22;10145;49.152;9.282;2024-01-07T19:14:39;-0.30;99.90
19968;DHT22;10145;49.152;9.282;2024-01-07T19:17:04;-0.30;99.90
19968;DHT22;10145;49.152;9.282;2024-01-07T19:19:30;-0.30;99.90
19968;DHT22;10145;49.152;9.282;2024-01-07T19:21:55;-0.40;99.90
19968;DHT22;10145;49.152;9.282;2024-01-07T19:24:21;-0.40;99.90
19968;DHT22;10145;49.152;9.282;2024-01-07T19:26:47;-0.40;99.90
19968;DHT22;10145;49.152;9.282;2024-01-07T19:29:13;-0.40;99.90
19968;DHT22;10145;49.152;9.282;2024-01-07T19:31:38;-0.40;99.90
19968;DHT22;10145;49.152;9.282;2024-01-07T19:34:08;-0.40;99.90
19968;DHT22;10145;49.152;9.282;2024-01-07T19:36:34;-0.40;99.90
19968;DHT22;10145;49.152;9.282;2024-01-07T19:39:04;-0.40;99.90
19968;DHT22;10145;49.152;9.282;2024-01-07T19:41:31;-0.40;99.90
19968;DHT22;10145;49.152;9.282;2024-01-07T19:44:00;-0.40;99.90
19968;DHT22;10145;49.152;9.282;2024-01-07T19:46:28;-0.40;99.90
19968;DHT22;10145;49.152;9.282;2024-01-07T19:48:55;-0.40;99.90
19968;DHT22;10145;49.152;9.282;2024-01-07T19:51:22;-0.40;99.90
19968;DHT22;10145;49.152;9.282;2024-01-07T19:53:48;-0.40;99.90
19968;DHT22;10145;49.152;9.282;2024-01-07T19:56:14;-0.40;99.90
19968;DHT22;10145;49.152;9.282;2024-01-07T19:58:40;-0.40;99.90
19968;DHT22;10145;49.152;9.282;2024-01-07T20:01:06;-0.40;99.90
19968;DHT22;10145;49.152;9.282;2024-01-07T20:03:31;-0.40;99.90
19968;DHT22;10145;49.152;9.282;2024-01-07T20:05:57;-0.40;99.90
19968;DHT22;10145;49.152;9.282;2024-01-07T20:08:23;-0.40;99.90
19968;DHT22;10145;49.152;9.282;2024-01-07T20:10:49;-0.40;99.90
19968;DHT22;10145;49.152;9.282;2024-01-07T20:13:14;-0.40;99.90
19968;DHT22;10145;49.152;9.282;2024-01-07T20:15:40;-0.40;99.90
19968;DHT22;10145;49.152;9.282;2024-01-07T20:18:07;-0.40;99.90
19968;DHT22;10145;49.152;9.282;2024-01-07T20:20:35;-0.40;99.90
19968;DHT22;10145;49.152;9.282;2024-01-07T20:23:01;-0.40;99.90
19968;DHT22;10145;49.152;9.282;2024-01-07T20:25:27;-0.30;99.90
19968;DHT22;10145;49.152;9.282;2024-01-07T20:27:52;-0.30;99.90
19968;DHT22;10145;49.152;9.282;2024-01-07T20:30:18;-0.30;99.90
19968;DHT22;10145;49.152;9.282;2024-01-07T20:32:44;-0.30;99.90
19968;DHT22;10145;49.152;9.282;2024-01-07T20:35:10;-0.30;99.90
19968;DHT22;10145;49.152;9.282;2024-01-07T20:37:35;-0.30;99.90
19968;DHT22;10145;49.152;9.282;2024-01-07T20:40:07;-0.40;99.90
19968;DHT22;10145;49.152;9.282;2024-01-07T20:42:33;-0.40;99.90
19968;DHT22;10145;49.152;9.282;2024-01-07T20:44:58;-0.40;99.90
19968;DHT22;10145;49.152;9.282;2024-01-07T20:47:24;-0.40;99.90
19968;DHT22;10145;49.152;9.282;2024-01-07T20:49:49;-0.40;99.90
19968;DHT22;10145;49.152;9.282;2024-01-07T20:52:15;-0.40;99.90
19968;DHT22;10145;49.152;9.282;2024-01-07T20:54:44;-0.40;99.90
19968;DHT22;10145;49.152;9.282;2024-01-07T20:57:10;-0.40;99.90
19968;DHT22;10145;49.152;9.282;2024-01-07T20:59:35;-0.40;99.90
19968;DHT22;10145;49.152;9.282;2024-01-07T21:02:02;-0.40;99.90
19968;DHT22;10145;49.152;9.282;2024-01-07T21:04:27;-0.40;99.90
19968;DHT22;10145;49.152;9.282;2024-01-07T21:06:53;-0.40;99.90
19968;DHT22;10145;49.152;9.282;2024-01-07T21:09:19;-0.40;99.90
19968;DHT22;10145;49.152;9.282;2024-01-07T21:11:46;-0.40;99.90
19968;DHT22;10145;49.152;9.282;2024-01-07T21:14:12;-0.40;99.90
19968;DHT22;10145;49.152;9.282;2024-01-07T21:16:38;-0.40;99.90
19968;DHT22;10145;49.152;9.282;2024-01-07T21:19:03;-0.40;99.90
19968;DHT22;10145;49.152;9.282;2024-01-07T21:21:29;-0.40;99.90
19968;DHT22;10145;49.152;9.282;2024-01-07T21:23:54;-0.40;99.90
19968;DHT22;10145;49.152;9.282;2024-01-07T21:26:20;-0.40;99.90
19968;DHT22;10145;49.152;9.282;2024-01-07T21:28:46;-0.40;99.90
19968;DHT22;10145;49.152;9.282;2024-01-07T21:31:18;-0.40;99.90
19968;DHT22;10145;49.152;9.282;2024-01-07T21:33:43;-0.40;99.90
19968;DHT22;10145;49.152;9.282;2024-01-07T21:36:09;-0.40;99.90
19968;DHT22;10145;49.152;9.282;2024-01-07T21:38:36;-0.40;99.90
19968;DHT22;10145;49.152;9.282;2024-01-07T21:41:03;-0.40;99.90
19968;DHT22;10145;49.152;9.282;2024-01-07T21:43:29;-0.40;99.90
19968;DHT22;10145;49.152;9.282;2024-01-07T21:45:58;-0.40;99.90
19968;DHT22;10145;49.152;9.282;2024-01-07T21:48:26;-0.50;99.90
19968;DHT22;10145;49.152;9.282;2024-01-07T21:50:52;-0.40;99.90
19968;DHT22;10145;49.152;9.282;2024-01-07T21:53:17;-0.40;99.90
19968;DHT22;10145;49.152;9.282;2024-01-07T21:55:43;-0.50;99.90
19968;DHT22;10145;49.152;9.282;2024-01-07T21:58:09;-0.50;99.90
19968;DHT22;10145;49.152;9.282;2024-01-07T22:00:35;-0.50;99.90
19968;DHT22;10145;49.152;9.282;2024-01-07T22:03:02;-0.50;99.90
19968;DHT22;10145;49.152;9.282;2024-01-07T22:05:27;-0.50;99.90
19968;DHT22;10145;49.152;9.282;2024-01-07T22:07:54;-0.40;99.90
19968;DHT22;10145;49.152;9.282;2024-01-07T22:10:20;-0.40;99.90
19968;DHT22;10145;49.152;9.282;2024-01-07T22:12:45;-0.40;99.90
19968;DHT22;10145;49.152;9.282;2024-01-07T22:15:11;-0.40;99.90
19968;DHT22;10145;49.152;9.282;2024-01-07T22:17:36;-0.40;99.90
19968;DHT22;10145;49.152;9.282;2024-01-07T22:20:02;-0.40;99.90
19968;DHT22;10145;49.152;9.282;2024-01-07T22:22:27;-0.40;99.90
19968;DHT22;10145;49.152;9.282;2024-01-07T22:24:53;-0.50;99.90
19968;DHT22;10145;49.152;9.282;2024-01-07T22:27:18;-0.50;99.90
19968;DHT22;10145;49.152;9.282;2024-01-07T22:29:44;-0.50;99.90
19968;DHT22;10145;49.152;9.282;2024-01-07T22:32:09;-0.50;99.90
19968;DHT22;10145;49.152;9.282;2024-01-07T22:34:35;-0.50;99.90
19968;DHT22;10145;49.152;9.282;2024-01-07T22:37:01;-0.40;99.90
19968;DHT22;10145;49.152;9.282;2024-01-07T22:39:26;-0.40;99.90
19968;DHT22;10145;49.152;9.282;2024-01-07T22:41:53;-0.50;99.90
19968;DHT22;10145;49.152;9.282;2024-01-07T22:44:18;-0.40;99.90
19968;DHT22;10145;49.152;9.282;2024-01-07T22:46:45;-0.50;99.90
19968;DHT22;10145;49.152;9.282;2024-01-07T22:49:12;-0.40;99.90
19968;DHT22;10145;49.152;9.282;2024-01-07T22:51:42;-0.40;99.90
19968;DHT22;10145;49.152;9.282;2024-01-07T22:54:08;-0.40;99.90
19968;DHT22;10145;49.152;9.282;2024-01-07T22:56:38;-0.50;99.90
19968;DHT22;10145;49.152;9.282;2024-01-07T22:59:03;-0.40;99.90
19968;DHT22;10145;49.152;9.282;2024-01-07T23:01:29;-0.40;99.90
19968;DHT22;10145;49.152;9.282;2024-01-07T23:03:54;-0.40;99.90
19968;DHT22;10145;49.152;9.282;2024-01-07T23:06:22;-0.40;99.90
19968;DHT22;10145;49.152;9.282;2024-01-07T23:08:49;-0.40;99.90
19968;DHT22;10145;49.152;9.282;2024-01-07T23:11:15;-0.50;99.90
19968;DHT22;10145;49.152;9.282;2024-01-07T23:13:40;-0.60;99.90
19968;DHT22;10145;49.152;9.282;2024-01-07T23:16:06;-0.40;99.90
19968;DHT22;10145;49.152;9.282;2024-01-07T23:18:32;-0.40;99.90
19968;DHT22;10145;49.152;9.282;2024-01-07T23:20:57;-0.40;99.90
19968;DHT22;10145;49.152;9.282;2024-01-07T23:23:23;-0.40;99.90
19968;DHT22;10145;49.152;9.282;2024-01-07T23:25:48;-0.40;99.90
19968;DHT22;10145;49.152;9.282;2024-01-07T23:28:14;-0.40;99.90
19968;DHT22;10145;49.152;9.282;2024-01-07T23:30:39;-0.30;99.90
19968;DHT22;10145;49.152;9.282;2024-01-07T23:33:05;-0.30;99.90
19968;DHT22;10145;49.152;9.282;2024-01-07T23:35:31;-0.30;99.90
19968;DHT22;10145;49.152;9.282;2024-01-07T23:37:56;-0.30;99.90
19968;DHT22;10145;49.152;9.282;2024-01-07T23:40:22;-0.30;99.90
19968;DHT22;10145;49.152;9.282;2024-01-07T23:42:47;-0.30;99.90
19968;DHT22;10145;49.152;9.282;2024-01-07T23:45:13;-0.30;99.90
19968;DHT22;10145;49.152;9.282;2024-01-07T23:47:39;-0.30;99.90
19968;DHT22;10145;49.152;9.282;2024-01-07T23:50:06;-0.30;99.90
19968;DHT22;10145;49.152;9.282;2024-01-07T23:52:31;-0.30;99.90
19968;DHT22;10145;49.152;9.282;2024-01-07T23:54:57;-0.30;99.90
19968;DHT22;10145;49.152;9.282;2024-01-07T23:57:24;-0.30;99.90
19968;DHT22;10145;49.152;9.282;2024-01-07T23:59:50;-0.30;99.90
